Airfield :
LOGIN :

Register | Disclaimer

   EN    FR    IT 

 










Legend :    VFR   Marginal VFR   IFR   Intensive IFR   Very Intensive IFR
Visi :
Ceiling :
>= 8 km
>= 3000ft
5 to 8 km
1000 to 3000 ft
1500m to 5 km
500 to 1000 ft
800 to 1500m
200 to 500 ft
< 800m
< 200 ft
Symbols :   Thunderstorms  Fog  Heavy snow  Heavy precipitations  Wind > 20 kt
SIGMETs :     Misc.  Thunderstorms  Icing  Turbulence  Mountain Waves  Volcanic Ashes






- Airport Elevation : 230 ft


ETHB - Buckeburg Army

CURRENT METAR :
  • 200820Z 03003KT 9999 FEW028 BKN390 17/10 Q1020 BLU+BLU+

EXPIRED METARs :
  • 200720Z 32003KT 9999 FEW020 BKN340 16/11 Q1021 BLU+BLU+
  • 200620Z 30005KT 9999 FEW014 SCT020 BKN380 14/11 Q1022 BLU+BLU+
  • 200550Z 29005KT 9999 FEW012 SCT018 BKN380 14/11 Q1022 BLU+BLU+
  • 200520Z 27003KT 9999 FEW012 BKN018 14/10 Q1022 WHT WHT TEMPO GRN

TAF TAF ETHB
Valid from the 20 at 05:00 until the 20 at 14:00 UTC


200417Z 2005/2014 VRB03KT 8000 NSW BKN015
TEMPO 2005/2007 VRB03KT 8000 NSW BKN012
BECMG 2006/2008 24004KT 9999 NSW SCT012 SCT035



MET'MAP, your aeronautical weather chart ! - Copyright ORBIFLY December 2007 - Disclaimer

ORBIFLY MET'MAP TEAM :

Programming & Development : Alexandra Zaïnal
Original concept : Baudouin d'Aumeries
Technical & hardware support : Manuel Goepfert
Assistance : Marc-Olivier Méhu

Contact : metmap@orbifly.com




SOURCES & CREDITS :

   NOAA